N65JT KLFT-KBRT
Flight info
| Callsign | N65JT |
|---|---|
| Flight time | N/A |
| Altitude | 4000 |
| Route | GUSRE ROSEY T406 TATER RAZOJ |
| Aircraft | C172/L-V/N |
Departure
| Time | 2026-05-06 02:31 |
|---|---|
| Airport | Lafayette Regional Airport (KLFT) |
Arrival
| Time | N/A |
|---|---|
| Airport | KBRT |
| Time | Latitude | Longitude | Altitude | Speed | Heading |
|---|---|---|---|---|---|
| 2026-05-06 02:23 | 30.21204 | -91.98974 | 29 ft | 0 kts | 199° |
| 2026-05-06 02:25 | 30.21201 | -91.98975 | 29 ft | 2 kts | 192° |
| 2026-05-06 02:26 | 30.21157 | -91.98965 | 30 ft | 12 kts | 142° |
| 2026-05-06 02:26 | 30.21116 | -91.98838 | 31 ft | 21 kts | 81° |
| 2026-05-06 02:26 | 30.21136 | -91.98645 | 28 ft | 26 kts | 108° |
| 2026-05-06 02:26 | 30.21048 | -91.98479 | 29 ft | 23 kts | 128° |
| 2026-05-06 02:27 | 30.21006 | -91.98328 | 27 ft | 21 kts | 36° |
| 2026-05-06 02:27 | 30.21138 | -91.98202 | 21 ft | 27 kts | 37° |
| 2026-05-06 02:27 | 30.21302 | -91.98056 | 18 ft | 31 kts | 40° |
| 2026-05-06 02:27 | 30.21389 | -91.97926 | 17 ft | 17 kts | 102° |
| 2026-05-06 02:28 | 30.21353 | -91.97863 | 17 ft | 0 kts | 134° |
| 2026-05-06 02:28 | 30.21347 | -91.97855 | 17 ft | 1 kts | 132° |
| 2026-05-06 02:28 | 30.21346 | -91.97855 | 17 ft | 0 kts | 133° |
| 2026-05-06 02:29 | 30.21314 | -91.97827 | 17 ft | 18 kts | 156° |
| 2026-05-06 02:30 | 30.21098 | -91.97984 | 19 ft | 59 kts | 218° |
| 2026-05-06 02:30 | 30.20734 | -91.98324 | 107 ft | 74 kts | 212° |
| 2026-05-06 02:30 | 30.20329 | -91.98740 | 241 ft | 81 kts | 214° |
| 2026-05-06 02:30 | 30.19912 | -91.99126 | 479 ft | 72 kts | 208° |
| 2026-05-06 02:31 | 30.19514 | -91.99481 | 673 ft | 71 kts | 208° |
| 2026-05-06 02:31 | 30.19152 | -91.99823 | 911 ft | 62 kts | 208° |
| 2026-05-06 02:31 | 30.18826 | -92.00175 | 1072 ft | 66 kts | 212° |
| 2026-05-06 02:31 | 30.18477 | -92.00479 | 1251 ft | 62 kts | 203° |
| 2026-05-06 02:32 | 30.18117 | -92.00756 | 1421 ft | 61 kts | 195° |
| 2026-05-06 02:32 | 30.17720 | -92.00610 | 1564 ft | 67 kts | 152° |
| 2026-05-06 02:32 | 30.17358 | -92.00275 | 1738 ft | 66 kts | 149° |
| 2026-05-06 02:32 | 30.17016 | -91.99892 | 1898 ft | 70 kts | 141° |
| 2026-05-06 02:33 | 30.16722 | -91.99431 | 2072 ft | 71 kts | 134° |
| 2026-05-06 02:33 | 30.16539 | -91.99120 | 2161 ft | 73 kts | 137° |
| 2026-05-06 02:33 | 30.15904 | -91.97910 | 2455 ft | 83 kts | 134° |
| 2026-05-06 02:34 | 30.15560 | -91.97316 | 2472 ft | 96 kts | 133° |
| 2026-05-06 02:34 | 30.15181 | -91.96629 | 2482 ft | 103 kts | 132° |
| 2026-05-06 02:34 | 30.14829 | -91.95943 | 2596 ft | 96 kts | 131° |
| 2026-05-06 02:34 | 30.14506 | -91.95295 | 2723 ft | 90 kts | 131° |
| 2026-05-06 02:35 | 30.14203 | -91.94673 | 2858 ft | 86 kts | 130° |
| 2026-05-06 02:35 | 30.13917 | -91.94084 | 2989 ft | 83 kts | 131° |
| 2026-05-06 02:35 | 30.13640 | -91.93509 | 3126 ft | 81 kts | 130° |
| 2026-05-06 02:35 | 30.13369 | -91.92944 | 3262 ft | 79 kts | 129° |
| 2026-05-06 02:36 | 30.13109 | -91.92400 | 3398 ft | 76 kts | 131° |
| 2026-05-06 02:36 | 30.12858 | -91.91872 | 3532 ft | 74 kts | 131° |
| 2026-05-06 02:36 | 30.12611 | -91.91353 | 3668 ft | 73 kts | 131° |
| 2026-05-06 02:36 | 30.12458 | -91.90786 | 3817 ft | 80 kts | 95° |
| 2026-05-06 02:37 | 30.12701 | -91.90198 | 3955 ft | 85 kts | 53° |
| 2026-05-06 02:37 | 30.13136 | -91.89654 | 3993 ft | 99 kts | 47° |
| 2026-05-06 02:37 | 30.13654 | -91.89057 | 3995 ft | 111 kts | 47° |
| 2026-05-06 02:37 | 30.14237 | -91.88403 | 3993 ft | 119 kts | 46° |
| 2026-05-06 02:38 | 30.14848 | -91.87734 | 3991 ft | 122 kts | 45° |
| 2026-05-06 02:38 | 30.15478 | -91.87056 | 3989 ft | 124 kts | 44° |
| 2026-05-06 02:38 | 30.16123 | -91.86368 | 3990 ft | 126 kts | 44° |
| 2026-05-06 02:38 | 30.16766 | -91.85688 | 3990 ft | 127 kts | 44° |
| 2026-05-06 02:39 | 30.17427 | -91.84988 | 3992 ft | 128 kts | 44° |
| 2026-05-06 02:39 | 30.18079 | -91.84299 | 3996 ft | 127 kts | 43° |
| 2026-05-06 02:39 | 30.18733 | -91.83607 | 3996 ft | 128 kts | 43° |
| 2026-05-06 02:39 | 30.19392 | -91.82910 | 3999 ft | 128 kts | 43° |
| 2026-05-06 02:40 | 30.20055 | -91.82211 | 3998 ft | 128 kts | 43° |
| 2026-05-06 02:40 | 30.20713 | -91.81514 | 3998 ft | 128 kts | 43° |
| 2026-05-06 02:40 | 30.21373 | -91.80817 | 4000 ft | 128 kts | 44° |
| 2026-05-06 02:40 | 30.22036 | -91.80117 | 4000 ft | 128 kts | 43° |
| 2026-05-06 02:41 | 30.22697 | -91.79426 | 3999 ft | 128 kts | 43° |
| 2026-05-06 02:41 | 30.23356 | -91.78734 | 3998 ft | 128 kts | 43° |
| 2026-05-06 02:41 | 30.24017 | -91.78039 | 3984 ft | 129 kts | 44° |
| 2026-05-06 02:41 | 30.24677 | -91.77341 | 3986 ft | 128 kts | 43° |
| 2026-05-06 02:42 | 30.25340 | -91.76640 | 3987 ft | 129 kts | 43° |
| 2026-05-06 02:42 | 30.26003 | -91.75938 | 3987 ft | 129 kts | 43° |
| 2026-05-06 02:42 | 30.26664 | -91.75237 | 3984 ft | 129 kts | 43° |
| 2026-05-06 02:42 | 30.27334 | -91.74529 | 3982 ft | 129 kts | 43° |
| 2026-05-06 02:43 | 30.28001 | -91.73823 | 3982 ft | 129 kts | 43° |
| 2026-05-06 02:43 | 30.28665 | -91.73119 | 3982 ft | 129 kts | 43° |
| 2026-05-06 02:43 | 30.29328 | -91.72417 | 3981 ft | 129 kts | 43° |
| 2026-05-06 02:43 | 30.29986 | -91.71720 | 3983 ft | 129 kts | 43° |
| 2026-05-06 02:44 | 30.30650 | -91.71018 | 3982 ft | 129 kts | 43° |
| 2026-05-06 02:44 | 30.31318 | -91.70309 | 3983 ft | 129 kts | 43° |
| 2026-05-06 02:44 | 30.31868 | -91.69508 | 3975 ft | 127 kts | 63° |
| 2026-05-06 02:44 | 30.32267 | -91.68614 | 3980 ft | 126 kts | 68° |
| 2026-05-06 02:45 | 30.32647 | -91.67701 | 3982 ft | 126 kts | 69° |
| 2026-05-06 02:45 | 30.33029 | -91.66779 | 3982 ft | 126 kts | 68° |
| 2026-05-06 02:45 | 30.33409 | -91.65865 | 3981 ft | 126 kts | 69° |
| 2026-05-06 02:45 | 30.33789 | -91.64952 | 3981 ft | 125 kts | 68° |
| 2026-05-06 02:46 | 30.34165 | -91.64050 | 3979 ft | 126 kts | 68° |
| 2026-05-06 02:46 | 30.34549 | -91.63129 | 3979 ft | 126 kts | 68° |
| 2026-05-06 02:46 | 30.34928 | -91.62221 | 3980 ft | 126 kts | 68° |
| 2026-05-06 02:46 | 30.35310 | -91.61302 | 3981 ft | 126 kts | 68° |
| 2026-05-06 02:47 | 30.35692 | -91.60388 | 3980 ft | 127 kts | 69° |
| 2026-05-06 02:47 | 30.36077 | -91.59461 | 3979 ft | 127 kts | 68° |
| 2026-05-06 02:47 | 30.36457 | -91.58547 | 3976 ft | 127 kts | 68° |
| 2026-05-06 02:47 | 30.36845 | -91.57617 | 3974 ft | 127 kts | 69° |
| 2026-05-06 02:48 | 30.37227 | -91.56701 | 3974 ft | 127 kts | 68° |
| 2026-05-06 02:48 | 30.37609 | -91.55782 | 3975 ft | 126 kts | 68° |
| 2026-05-06 02:48 | 30.37990 | -91.54866 | 3976 ft | 126 kts | 68° |
| 2026-05-06 02:48 | 30.38370 | -91.53954 | 3978 ft | 126 kts | 68° |
| 2026-05-06 02:49 | 30.38751 | -91.53040 | 3977 ft | 126 kts | 68° |
| 2026-05-06 02:49 | 30.39130 | -91.52126 | 3977 ft | 126 kts | 69° |
| 2026-05-06 02:49 | 30.39511 | -91.51211 | 3977 ft | 126 kts | 69° |
| 2026-05-06 02:49 | 30.39893 | -91.50293 | 3978 ft | 126 kts | 68° |
| 2026-05-06 02:50 | 30.40271 | -91.49381 | 3979 ft | 126 kts | 68° |
| 2026-05-06 02:50 | 30.40652 | -91.48466 | 3977 ft | 126 kts | 68° |
| 2026-05-06 02:50 | 30.41036 | -91.47540 | 3978 ft | 127 kts | 68° |
| 2026-05-06 02:50 | 30.41419 | -91.46616 | 3976 ft | 127 kts | 68° |
| 2026-05-06 02:51 | 30.41802 | -91.45693 | 3978 ft | 127 kts | 68° |
| 2026-05-06 02:51 | 30.42188 | -91.44764 | 3978 ft | 127 kts | 68° |
| 2026-05-06 02:51 | 30.42571 | -91.43845 | 3977 ft | 127 kts | 68° |
| 2026-05-06 02:51 | 30.42951 | -91.42924 | 3975 ft | 127 kts | 68° |
| 2026-05-06 02:52 | 30.43340 | -91.41988 | 3976 ft | 127 kts | 68° |
| 2026-05-06 02:52 | 30.43722 | -91.41064 | 3975 ft | 127 kts | 68° |
| 2026-05-06 02:52 | 30.44015 | -91.40356 | 3976 ft | 126 kts | 68° |
| 2026-05-06 02:52 | 30.44564 | -91.39556 | 3978 ft | 128 kts | 43° |
| 2026-05-06 02:53 | 30.45250 | -91.38869 | 3979 ft | 129 kts | 39° |
| 2026-05-06 02:53 | 30.45939 | -91.38210 | 3976 ft | 129 kts | 39° |
| 2026-05-06 02:53 | 30.46636 | -91.37543 | 3978 ft | 129 kts | 39° |
| 2026-05-06 02:53 | 30.47325 | -91.36883 | 3978 ft | 129 kts | 39° |
| 2026-05-06 02:54 | 30.48027 | -91.36207 | 3980 ft | 130 kts | 39° |
| 2026-05-06 02:54 | 30.48717 | -91.35542 | 3976 ft | 130 kts | 39° |
| 2026-05-06 02:54 | 30.49424 | -91.34862 | 3974 ft | 130 kts | 39° |
| 2026-05-06 02:54 | 30.50116 | -91.34196 | 3975 ft | 130 kts | 39° |
| 2026-05-06 02:55 | 30.50817 | -91.33518 | 3974 ft | 130 kts | 39° |
| 2026-05-06 02:55 | 30.51511 | -91.32851 | 3977 ft | 129 kts | 39° |
| 2026-05-06 02:55 | 30.52210 | -91.32179 | 3976 ft | 130 kts | 39° |
| 2026-05-06 02:55 | 30.52903 | -91.31512 | 3978 ft | 130 kts | 39° |
| 2026-05-06 02:56 | 30.53595 | -91.30843 | 3983 ft | 130 kts | 40° |
| 2026-05-06 02:56 | 30.54294 | -91.30167 | 3982 ft | 130 kts | 39° |
| 2026-05-06 02:56 | 30.54991 | -91.29494 | 3980 ft | 130 kts | 39° |
| 2026-05-06 02:56 | 30.55683 | -91.28826 | 3980 ft | 129 kts | 39° |
| 2026-05-06 02:57 | 30.56378 | -91.28157 | 3979 ft | 129 kts | 39° |
| 2026-05-06 02:57 | 30.57071 | -91.27490 | 3983 ft | 129 kts | 40° |
| 2026-05-06 02:57 | 30.57759 | -91.26825 | 3985 ft | 129 kts | 39° |
| 2026-05-06 02:57 | 30.58453 | -91.26154 | 3945 ft | 131 kts | 40° |
| 2026-05-06 02:58 | 30.59158 | -91.25472 | 3871 ft | 131 kts | 40° |
| 2026-05-06 02:58 | 30.59860 | -91.24790 | 3775 ft | 131 kts | 41° |
| 2026-05-06 02:58 | 30.60351 | -91.23911 | 3638 ft | 128 kts | 82° |
| 2026-05-06 02:58 | 30.60331 | -91.22931 | 3513 ft | 120 kts | 112° |
| 2026-05-06 02:59 | 30.60127 | -91.22009 | 3392 ft | 118 kts | 116° |
| 2026-05-06 02:59 | 30.59905 | -91.21093 | 3271 ft | 117 kts | 116° |
| 2026-05-06 02:59 | 30.59682 | -91.20184 | 3147 ft | 115 kts | 116° |
| 2026-05-06 02:59 | 30.59476 | -91.19318 | 3092 ft | 103 kts | 115° |
| 2026-05-06 03:00 | 30.59289 | -91.18525 | 2958 ft | 101 kts | 117° |
| 2026-05-06 03:00 | 30.59099 | -91.17739 | 2810 ft | 99 kts | 117° |
| 2026-05-06 03:00 | 30.58913 | -91.16975 | 2667 ft | 98 kts | 117° |
| 2026-05-06 03:00 | 30.58730 | -91.16218 | 2522 ft | 97 kts | 116° |
| 2026-05-06 03:01 | 30.58550 | -91.15471 | 2374 ft | 94 kts | 117° |
| 2026-05-06 03:01 | 30.58377 | -91.14756 | 2229 ft | 91 kts | 118° |
| 2026-05-06 03:01 | 30.58206 | -91.14047 | 2082 ft | 90 kts | 118° |
| 2026-05-06 03:01 | 30.58039 | -91.13353 | 1941 ft | 89 kts | 118° |
| 2026-05-06 03:02 | 30.57873 | -91.12663 | 1797 ft | 88 kts | 118° |
| 2026-05-06 03:02 | 30.57710 | -91.11988 | 1650 ft | 86 kts | 119° |
| 2026-05-06 03:02 | 30.57486 | -91.11385 | 1496 ft | 75 kts | 144° |
| 2026-05-06 03:02 | 30.57081 | -91.11208 | 1377 ft | 60 kts | 186° |
| 2026-05-06 03:03 | 30.56687 | -91.11372 | 1226 ft | 59 kts | 200° |
| 2026-05-06 03:03 | 30.56323 | -91.11606 | 1076 ft | 60 kts | 205° |
| 2026-05-06 03:03 | 30.55968 | -91.11871 | 931 ft | 61 kts | 207° |
| 2026-05-06 03:03 | 30.55615 | -91.12149 | 799 ft | 61 kts | 207° |
| 2026-05-06 03:04 | 30.55272 | -91.12450 | 669 ft | 62 kts | 211° |
| 2026-05-06 03:04 | 30.54933 | -91.12780 | 520 ft | 64 kts | 213° |
| 2026-05-06 03:04 | 30.54596 | -91.13125 | 395 ft | 64 kts | 217° |
| 2026-05-06 03:04 | 30.54284 | -91.13457 | 301 ft | 58 kts | 213° |
| 2026-05-06 03:05 | 30.53974 | -91.13766 | 192 ft | 59 kts | 216° |
| 2026-05-06 03:05 | 30.53689 | -91.14088 | 110 ft | 56 kts | 216° |
| 2026-05-06 03:05 | 30.53443 | -91.14353 | 66 ft | 32 kts | 217° |
| 2026-05-06 03:05 | 30.53298 | -91.14505 | 66 ft | 26 kts | 234° |
| 2026-05-06 03:06 | 30.53161 | -91.14652 | 66 ft | 28 kts | 226° |
| 2026-05-06 03:06 | 30.53075 | -91.14689 | 65 ft | 0 kts | 131° |
| 2026-05-06 03:06 | 30.53000 | -91.14603 | 65 ft | 20 kts | 131° |
| 2026-05-06 03:06 | 30.53015 | -91.14545 | 65 ft | 12 kts | 316° |
| 2026-05-06 03:07 | 30.53091 | -91.14549 | 65 ft | 9 kts | 8° |
| 2026-05-06 03:07 | 30.53117 | -91.14562 | 65 ft | 0 kts | 145° |
| 2026-05-06 03:07 | 30.53116 | -91.14562 | 65 ft | 0 kts | 136° |